Snyder, Missouri
Current Conditions -  °F | °C
As of 7:55 AM on Thursday 30 Oct 2014 (Local Time) from KVER Reporting Station
Broken Clouds Broken Clouds  
Wind Chill:   Ceiling: 8500
Heat Index:   Visibility: 10mi
Dew Point:   Wind: 6mph
Humidity: 72%   Direction: 140°SE
Pressure: 30.07"   Gusts: NA
Location:  39.5082°N, 93.2104°W
Report Text: KVER 301255Z AUTO 14005KT 10SM BKN085 BKN120 06/02 A3007 RMK AO2 T00630015
Loading
Personal Weather Stations






























Interactive Weather Map
Tropical Storm Tracking
New forecast layout! Learn more

10-Day Weather Forecast

Advertisements
Track Severe Weather on mobile